Time;durP1;ratioP1;P1;durP2;ratioP2;P2;SDS_P1;SDS_P2;PMS_P1;PMS_P2;Temp;Humidity;BMP_temperature;BMP_pressure;BME280_temperature;BME280_humidity;BME280_pressure;Samples;Min_cycle;Max_cycle;Signal;HPM_P1;HPM_P2
2022/06/25 00:00:44;;;;;;;2.03;1.70;;;20.20;99.90;;;;;;5060242;28;20382;-83
2022/06/25 00:03:29;;;;;;;1.73;1.60;;;20.30;99.90;;;;;;5059851;28;20390;-84
2022/06/25 00:06:15;;;;;;;1.77;1.67;;;20.10;99.90;;;;;;5059852;28;20382;-82
2022/06/25 00:09:00;;;;;;;2.40;2.20;;;20.10;99.90;;;;;;5060453;28;20882;-82
2022/06/25 00:14:49;;;;;;;2.00;1.80;;;20.20;99.90;;;;;;5059738;28;20410;-83
2022/06/25 00:17:34;;;;;;;3.07;2.00;;;20.30;99.90;;;;;;5045941;28;20436;-83
2022/06/25 00:20:18;;;;;;;1.97;1.87;;;20.30;99.90;;;;;;5046694;28;20394;-83
2022/06/25 00:23:03;;;;;;;1.50;1.40;;;20.40;99.90;;;;;;5062813;28;20437;-83
2022/06/25 00:25:48;;;;;;;1.70;1.60;;;20.50;99.90;;;;;;5062250;28;20413;-83
2022/06/25 00:28:33;;;;;;;3.00;1.87;;;20.30;99.90;;;;;;5075241;28;20394;-82
2022/06/25 00:31:18;;;;;;;2.53;2.00;;;20.40;99.90;;;;;;5075884;28;20449;-80
2022/06/25 00:34:04;;;;;;;2.47;1.60;;;20.30;99.90;;;;;;5076409;28;20385;-82
2022/06/25 00:36:49;;;;;;;2.10;1.90;;;20.30;99.90;;;;;;5045698;28;20440;-83
2022/06/25 00:39:35;;;;;;;2.10;1.90;;;20.20;99.90;;;;;;5060861;28;20385;-83
2022/06/25 00:42:19;;;;;;;1.93;1.73;;;20.20;99.90;;;;;;5055317;28;21005;-83
2022/06/25 00:45:04;;;;;;;1.87;1.73;;;20.20;99.90;;;;;;5044649;28;20393;-83
2022/06/25 00:47:49;;;;;;;1.80;1.70;;;20.10;99.90;;;;;;5030266;28;20456;-82
2022/06/25 00:50:35;;;;;;;1.90;1.80;;;20.10;99.90;;;;;;5043950;28;20436;-82
2022/06/25 00:53:21;;;;;;;1.90;1.80;;;20.10;99.90;;;;;;5058914;28;20393;-83
2022/06/25 00:56:07;;;;;;;2.60;2.07;;;20.20;99.90;;;;;;5044066;28;20480;-82
2022/06/25 00:58:54;;;;;;;4.67;2.10;;;20.10;99.90;;;;;;5024363;28;20479;-82
2022/06/25 01:01:39;;;;;;;2.37;1.80;;;20.20;99.90;;;;;;5039209;28;20471;-83
2022/06/25 01:04:23;;;;;;;1.93;1.83;;;20.20;99.90;;;;;;5038668;28;20918;-83
2022/06/25 01:07:08;;;;;;;1.57;1.47;;;20.10;99.90;;;;;;5039110;28;20442;-82
2022/06/25 01:09:54;;;;;;;2.67;2.23;;;20.10;99.90;;;;;;5037679;28;20394;-83
2022/06/25 01:12:39;;;;;;;1.80;1.70;;;20.20;99.90;;;;;;5037993;28;20527;-83
2022/06/25 01:15:23;;;;;;;3.77;2.47;;;20.10;99.90;;;;;;5038010;28;20478;-82
2022/06/25 01:18:08;;;;;;;2.27;2.03;;;20.00;99.90;;;;;;5039207;28;20394;-83
2022/06/25 01:20:53;;;;;;;1.90;1.80;;;20.10;99.90;;;;;;5039089;28;20739;-82
2022/06/25 01:23:38;;;;;;;1.73;1.63;;;20.00;99.90;;;;;;5040154;28;20387;-83
2022/06/25 01:26:22;;;;;;;1.93;1.70;;;20.00;99.90;;;;;;5042951;28;20414;-83
2022/06/25 01:29:08;;;;;;;1.93;1.83;;;19.60;99.90;;;;;;5042348;28;20907;-83
2022/06/25 01:31:53;;;;;;;3.00;2.10;;;19.50;99.90;;;;;;5042163;28;20861;-82
2022/06/25 01:34:38;;;;;;;2.17;1.97;;;19.40;99.90;;;;;;5042801;28;20379;-82
2022/06/25 01:37:23;;;;;;;1.97;1.87;;;19.40;99.90;;;;;;5042380;28;20954;-82
2022/06/25 01:40:08;;;;;;;2.10;1.97;;;19.60;99.90;;;;;;5042589;28;20379;-83
2022/06/25 01:43:02;;;;;;;6.70;2.47;;;19.60;99.90;;;;;;5042102;28;20486;-82
2022/06/25 01:45:48;;;;;;;2.43;2.10;;;19.60;99.90;;;;;;5027655;28;20470;-83
2022/06/25 01:48:34;;;;;;;2.60;2.40;;;19.60;99.90;;;;;;5042475;28;20394;-83
2022/06/25 01:51:20;;;;;;;2.57;2.37;;;19.70;99.90;;;;;;5042119;28;20430;-82
2022/06/25 01:54:05;;;;;;;2.57;2.47;;;19.70;99.90;;;;;;5026880;28;20688;-82
2022/06/25 01:56:49;;;;;;;2.37;2.27;;;19.70;99.90;;;;;;5041581;28;20446;-81
2022/06/25 01:59:34;;;;;;;5.23;2.50;;;19.60;99.90;;;;;;5013077;28;20426;-83
2022/06/25 02:02:19;;;;;;;3.07;2.87;;;19.40;99.90;;;;;;5027742;28;20434;-83
2022/06/25 02:05:06;;;;;;;4.70;2.20;;;19.40;99.90;;;;;;5042786;28;20398;-84
2022/06/25 02:07:50;;;;;;;2.90;2.70;;;19.10;99.90;;;;;;5042627;28;20394;-83
2022/06/25 02:10:36;;;;;;;2.67;2.47;;;19.00;99.90;;;;;;5027576;28;20418;-82
2022/06/25 02:13:21;;;;;;;2.67;2.47;;;19.10;99.90;;;;;;5041630;28;20442;-82
2022/06/25 02:16:07;;;;;;;2.30;2.20;;;18.90;99.90;;;;;;5041138;28;20479;-83
2022/06/25 02:18:51;;;;;;;2.70;2.50;;;18.80;99.90;;;;;;5042106;28;20391;-83
2022/06/25 02:21:36;;;;;;;3.60;3.30;;;18.60;99.90;;;;;;5041724;28;20469;-83
2022/06/25 02:24:21;;;;;;;3.20;2.97;;;18.80;99.90;;;;;;5042170;28;20379;-83
2022/06/25 02:27:06;;;;;;;2.77;2.57;;;19.10;99.90;;;;;;5027349;28;20772;-83
2022/06/25 02:29:50;;;;;;;7.90;3.53;;;19.10;99.90;;;;;;5043597;28;20438;-83
2022/06/25 02:32:36;;;;;;;6.67;3.00;;;19.00;99.90;;;;;;5051757;28;20470;-83
2022/06/25 02:35:20;;;;;;;3.23;3.03;;;19.00;99.90;;;;;;5046982;28;20391;-82
2022/06/25 02:38:05;;;;;;;3.47;3.20;;;19.10;99.90;;;;;;5013044;28;20483;-83
2022/06/25 02:40:50;;;;;;;3.13;2.93;;;18.90;99.90;;;;;;5041568;28;20415;-82
2022/06/25 02:43:35;;;;;;;4.30;3.90;;;19.00;99.90;;;;;;5041565;28;20395;-83
2022/06/25 02:46:20;;;;;;;9.23;2.83;;;19.20;99.90;;;;;;5020640;28;20407;-83
2022/06/25 02:49:05;;;;;;;3.90;3.60;;;19.00;99.90;;;;;;5038037;28;20472;-83
2022/06/25 02:51:50;;;;;;;4.33;3.20;;;19.00;99.90;;;;;;5040750;28;20438;-83
2022/06/25 02:54:36;;;;;;;2.93;2.73;;;19.00;99.90;;;;;;5027273;28;20426;-83
2022/06/25 03:00:16;;;;;;;3.43;3.13;;;19.10;99.90;;;;;;5040803;28;20455;-83
2022/06/25 03:03:01;;;;;;;3.13;2.93;;;19.00;99.90;;;;;;5041370;28;20387;-83
2022/06/25 03:05:46;;;;;;;3.33;3.03;;;19.00;99.90;;;;;;5041568;28;20491;-82
2022/06/25 03:08:30;;;;;;;3.00;2.80;;;19.00;99.90;;;;;;5041327;28;20383;-83
2022/06/25 03:11:16;;;;;;;3.60;3.40;;;19.00;99.90;;;;;;5041772;28;20497;-82
2022/06/25 03:14:00;;;;;;;3.83;3.23;;;19.10;99.90;;;;;;5026001;28;20439;-83
2022/06/25 03:16:45;;;;;;;3.40;3.07;;;19.00;99.90;;;;;;5025906;28;20467;-83
2022/06/25 03:19:30;;;;;;;8.17;3.50;;;19.10;99.90;;;;;;5041343;28;20455;-83
2022/06/25 03:22:15;;;;;;;3.33;3.13;;;19.20;99.90;;;;;;5026212;28;20387;-83
2022/06/25 03:25:00;;;;;;;3.70;3.40;;;19.10;99.90;;;;;;5041085;28;20471;-83
2022/06/25 03:27:45;;;;;;;3.10;2.90;;;18.90;99.90;;;;;;5040953;28;20387;-83
2022/06/25 03:30:29;;;;;;;3.30;3.03;;;19.00;99.90;;;;;;5026501;28;20382;-83
2022/06/25 03:33:14;;;;;;;4.00;3.50;;;19.10;99.90;;;;;;5041259;28;20888;-83
2022/06/25 03:35:59;;;;;;;3.20;3.00;;;19.20;99.90;;;;;;5040703;28;20395;-83
2022/06/25 03:38:44;;;;;;;3.97;3.67;;;19.10;99.90;;;;;;5041085;28;20411;-83
2022/06/25 03:41:36;;;;;;;4.23;3.93;;;19.10;99.90;;;;;;5040698;28;20378;-83
2022/06/25 03:44:20;;;;;;;4.17;3.77;;;19.20;99.90;;;;;;5026387;28;20395;-83
2022/06/25 03:47:05;;;;;;;3.87;3.60;;;19.30;99.90;;;;;;5039910;28;20406;-83
2022/06/25 03:49:50;;;;;;;5.03;3.37;;;19.20;99.90;;;;;;5038986;28;20490;-83
2022/06/25 03:52:34;;;;;;;3.70;3.50;;;19.30;99.90;;;;;;5025559;28;20493;-83
2022/06/25 03:55:19;;;;;;;3.70;3.50;;;19.30;99.90;;;;;;5021294;28;20391;-83
2022/06/25 03:58:04;;;;;;;3.70;3.50;;;19.00;99.90;;;;;;5036089;28;20577;-83
2022/06/25 04:00:49;;;;;;;3.70;3.40;;;19.20;99.90;;;;;;5042726;28;20475;-83
2022/06/25 04:03:33;;;;;;;4.07;3.67;;;19.20;99.90;;;;;;5040358;28;20737;-83
2022/06/25 04:06:18;;;;;;;4.37;3.20;;;19.40;99.90;;;;;;5025670;28;20446;-83
2022/06/25 04:09:04;;;;;;;3.20;3.00;;;19.40;99.90;;;;;;5039895;28;20736;-84
2022/06/25 04:11:49;;;;;;;3.67;3.37;;;19.40;99.90;;;;;;5040524;28;20453;-83
2022/06/25 04:14:33;;;;;;;3.70;3.40;;;19.20;99.90;;;;;;5040274;28;20399;-83
2022/06/25 04:17:18;;;;;;;5.57;3.33;;;19.40;99.90;;;;;;5040424;28;20416;-83
2022/06/25 04:20:03;;;;;;;3.83;3.63;;;19.40;99.90;;;;;;5039713;28;20387;-83
2022/06/25 04:22:48;;;;;;;3.87;3.60;;;19.00;99.90;;;;;;5040707;28;20391;-83
2022/06/25 04:25:33;;;;;;;4.80;4.00;;;19.10;99.90;;;;;;5040230;28;20435;-83
2022/06/25 04:29:16;;;;;;;9.70;3.90;;;19.30;99.90;;;;;;5039798;28;20471;-83
2022/06/25 04:31:21;;;;;;;6.20;3.40;;;19.30;99.90;;;;;;5039913;28;20454;-82
2022/06/25 04:34:06;;;;;;;6.40;3.47;;;19.40;99.90;;;;;;5040525;28;20391;-83
2022/06/25 04:36:51;;;;;;;5.60;4.20;;;19.50;99.90;;;;;;5026119;28;20383;-84
2022/06/25 04:39:35;;;;;;;5.13;3.90;;;19.60;99.90;;;;;;5041212;28;20383;-84
2022/06/25 04:42:19;;;;;;;4.33;3.93;;;19.60;99.90;;;;;;5039674;28;20380;-83
2022/06/25 04:45:05;;;;;;;4.93;4.40;;;19.60;99.90;;;;;;5040681;28;20848;-84
2022/06/25 04:47:49;;;;;;;5.63;4.90;;;19.40;99.90;;;;;;5040279;28;20384;-82
2022/06/25 04:50:34;;;;;;;4.20;3.90;;;19.50;99.90;;;;;;5039912;28;20460;-82
2022/06/25 04:53:18;;;;;;;5.27;4.83;;;19.60;99.90;;;;;;5039254;28;20387;-84
2022/06/25 04:56:03;;;;;;;4.10;3.70;;;19.60;99.90;;;;;;5041107;28;20426;-84
2022/06/25 04:58:48;;;;;;;4.17;3.77;;;19.60;99.90;;;;;;5040664;28;20462;-84
2022/06/25 05:01:32;;;;;;;4.03;3.70;;;19.60;99.90;;;;;;5057818;28;20410;-83
2022/06/25 05:04:17;;;;;;;7.53;4.77;;;19.60;99.90;;;;;;5058091;28;20422;-83
2022/06/25 05:07:02;;;;;;;3.67;3.27;;;19.50;99.90;;;;;;5057341;28;20430;-81
2022/06/25 05:09:47;;;;;;;5.07;4.57;;;19.60;99.90;;;;;;5057966;28;20430;-84
2022/06/25 05:15:28;;;;;;;4.40;4.03;;;19.60;99.90;;;;;;5055240;28;20390;-83
2022/06/25 05:18:13;;;;;;;4.17;3.87;;;19.70;99.90;;;;;;5057412;28;20394;-83
2022/06/25 05:20:57;;;;;;;4.17;3.87;;;19.60;99.90;;;;;;5038706;28;20441;-82
2022/06/25 05:23:42;;;;;;;3.90;3.60;;;19.70;99.90;;;;;;5040209;28;20414;-82
2022/06/25 05:26:27;;;;;;;4.00;3.70;;;19.80;99.90;;;;;;5039991;28;20387;-82
2022/06/25 05:29:11;;;;;;;4.40;4.10;;;19.90;99.90;;;;;;5040254;28;20391;-82
2022/06/25 05:31:56;;;;;;;4.00;3.70;;;20.00;99.90;;;;;;5044200;28;20442;-82
2022/06/25 05:34:41;;;;;;;5.80;4.40;;;19.40;99.90;;;;;;5056023;28;20411;-82
2022/06/25 05:37:26;;;;;;;6.57;3.60;;;19.40;99.90;;;;;;5054124;28;20366;-82
2022/06/25 05:40:11;;;;;;;4.23;3.83;;;19.60;99.90;;;;;;5053741;28;20426;-80
2022/06/25 05:42:56;;;;;;;7.00;3.77;;;19.70;99.90;;;;;;5052160;28;20387;-81
2022/06/25 05:45:41;;;;;;;4.30;4.00;;;19.80;99.90;;;;;;5049511;28;20449;-83
2022/06/25 05:48:25;;;;;;;3.37;3.17;;;20.00;99.90;;;;;;5048288;28;20472;-83
2022/06/25 05:51:10;;;;;;;3.63;3.33;;;20.00;99.90;;;;;;5049542;28;20450;-83
2022/06/25 05:53:55;;;;;;;4.47;4.17;;;20.10;99.90;;;;;;5047152;28;20741;-83
2022/06/25 05:56:40;;;;;;;3.97;3.30;;;20.10;99.90;;;;;;5044131;28;20458;-83
2022/06/25 05:59:24;;;;;;;2.97;2.80;;;20.10;99.90;;;;;;5048788;28;20391;-82
2022/06/25 06:02:09;;;;;;;4.43;3.00;;;20.00;99.90;;;;;;5046834;28;20485;-82
2022/06/25 06:04:54;;;;;;;4.00;3.70;;;20.10;99.90;;;;;;5044424;28;20391;-82
2022/06/25 06:07:39;;;;;;;3.90;3.60;;;20.20;99.90;;;;;;5053787;28;20395;-82
2022/06/25 06:10:23;;;;;;;3.33;3.13;;;20.30;99.90;;;;;;5054366;28;20398;-82
2022/06/25 06:13:08;;;;;;;3.17;2.87;;;20.10;99.90;;;;;;5058498;28;20450;-81
2022/06/25 06:15:53;;;;;;;4.63;4.33;;;20.30;99.90;;;;;;5059186;28;20382;-81
2022/06/25 06:18:38;;;;;;;4.73;3.30;;;20.40;99.90;;;;;;5059588;28;20383;-81
2022/06/25 06:21:22;;;;;;;3.50;3.00;;;20.40;99.90;;;;;;5030486;28;20415;-82
2022/06/25 06:24:07;;;;;;;3.47;3.17;;;20.50;99.90;;;;;;5043184;28;20430;-83
2022/06/25 06:26:52;;;;;;;2.93;2.60;;;20.50;99.90;;;;;;5051287;28;20407;-83
2022/06/25 06:29:37;;;;;;;3.37;3.17;;;20.60;99.90;;;;;;5048078;28;20437;-83
2022/06/25 06:32:21;;;;;;;3.10;2.90;;;20.30;99.90;;;;;;5043815;28;20496;-83
2022/06/25 06:35:06;;;;;;;3.40;2.70;;;20.60;99.90;;;;;;5043605;28;20386;-83
2022/06/25 06:37:51;;;;;;;3.20;2.90;;;20.70;99.90;;;;;;5042264;28;20487;-83
2022/06/25 06:40:36;;;;;;;3.23;3.03;;;20.70;99.90;;;;;;5042857;28;20746;-83
2022/06/25 06:43:21;;;;;;;3.17;2.97;;;20.80;99.90;;;;;;5042142;28;20446;-83
2022/06/25 06:46:07;;;;;;;2.90;2.70;;;20.80;99.90;;;;;;5027326;28;20410;-83
2022/06/25 06:48:51;;;;;;;3.70;3.10;;;20.90;99.90;;;;;;5041552;28;20391;-83
2022/06/25 06:51:37;;;;;;;6.10;3.60;;;20.70;99.90;;;;;;5041358;28;20969;-83
2022/06/25 06:54:21;;;;;;;3.27;3.07;;;21.10;99.90;;;;;;5040323;28;20455;-83
2022/06/25 06:57:07;;;;;;;3.93;3.63;;;21.00;99.90;;;;;;5041569;28;20596;-83
2022/06/25 06:59:52;;;;;;;3.63;3.07;;;21.10;99.90;;;;;;5042386;28;20391;-83
2022/06/25 07:02:36;;;;;;;3.57;3.27;;;21.00;99.90;;;;;;5041516;28;20403;-83
2022/06/25 07:05:21;;;;;;;5.03;3.37;;;21.30;99.90;;;;;;5041181;28;20474;-83
2022/06/25 07:08:06;;;;;;;3.40;3.20;;;21.40;99.90;;;;;;5041923;28;20410;-83
2022/06/25 07:10:51;;;;;;;3.70;3.13;;;21.30;99.90;;;;;;5026656;28;20888;-83
2022/06/25 07:13:35;;;;;;;3.60;3.30;;;21.70;99.90;;;;;;5042423;28;20410;-83
2022/06/25 07:16:21;;;;;;;2.87;2.67;;;21.80;99.90;;;;;;5042087;28;20442;-83
2022/06/25 07:19:05;;;;;;;6.40;3.23;;;21.40;99.90;;;;;;5041608;28;20443;-83
2022/06/25 07:21:49;;;;;;;6.73;3.03;;;21.20;99.90;;;;;;5040528;28;20475;-83
2022/06/25 07:24:35;;;;;;;3.57;3.37;;;21.30;99.90;;;;;;5050355;28;20414;-83
2022/06/25 07:27:20;;;;;;;3.83;3.60;;;21.30;99.90;;;;;;5044939;28;20390;-84
2022/06/25 07:30:05;;;;;;;3.37;3.10;;;21.50;99.90;;;;;;5042368;28;20479;-82
2022/06/25 07:32:53;;;;;;;4.30;4.00;;;21.60;99.90;;;;;;5046994;28;20797;-84
2022/06/25 07:35:37;;;;;;;3.77;3.47;;;21.20;99.90;;;;;;5028569;28;20399;-83
2022/06/25 07:38:22;;;;;;;3.03;2.83;;;20.80;99.90;;;;;;5040828;28;20411;-81
2022/06/25 07:41:19;;;;;;;3.57;3.27;;;21.00;99.90;;;;;;5045505;28;20394;-85
2022/06/25 07:44:04;;;;;;;3.50;3.20;;;21.10;99.90;;;;;;5034476;28;20468;-84
2022/06/25 07:46:54;;;;;;;2.87;2.67;;;21.10;99.90;;;;;;5048344;28;20446;-84
2022/06/25 07:52:44;;;;;;;4.10;3.80;;;20.80;99.90;;;;;;4986895;28;20598;-83
2022/06/25 07:55:28;;;;;;;3.30;3.00;;;20.80;99.90;;;;;;4949717;29;20487;-83
2022/06/25 07:58:13;;;;;;;4.27;3.97;;;20.80;99.90;;;;;;4940359;29;20515;-82
2022/06/25 08:00:58;;;;;;;4.20;3.90;;;20.90;99.90;;;;;;4939910;29;20415;-82
2022/06/25 08:03:42;;;;;;;4.60;4.30;;;21.10;99.90;;;;;;4940438;29;20515;-82
2022/06/25 08:06:27;;;;;;;4.80;3.67;;;21.20;99.90;;;;;;4941375;29;20431;-80
2022/06/25 08:09:12;;;;;;;4.23;3.87;;;21.20;99.90;;;;;;4926490;29;20463;-82
2022/06/25 08:11:56;;;;;;;4.80;3.60;;;21.20;99.90;;;;;;4939105;29;20832;-83
2022/06/25 08:14:41;;;;;;;4.20;3.83;;;21.80;99.90;;;;;;4940239;29;20423;-84
2022/06/25 08:17:26;;;;;;;3.83;3.50;;;21.70;99.90;;;;;;4941537;28;20438;-83
2022/06/25 08:20:11;;;;;;;3.73;3.53;;;21.50;99.90;;;;;;4959166;29;20446;-84
2022/06/25 08:22:55;;;;;;;5.30;4.47;;;22.20;99.90;;;;;;4979251;28;20437;-83
2022/06/25 08:25:40;;;;;;;3.63;3.40;;;22.50;99.90;;;;;;4983480;28;20534;-83
2022/06/25 08:28:25;;;;;;;3.90;3.47;;;22.50;99.90;;;;;;5002057;28;20442;-83
2022/06/25 08:31:10;;;;;;;4.27;3.97;;;22.30;99.90;;;;;;5039407;28;20446;-83
2022/06/25 08:33:54;;;;;;;4.50;4.20;;;22.40;99.90;;;;;;5023781;28;20844;-84
2022/06/25 08:36:39;;;;;;;5.33;4.97;;;22.60;99.90;;;;;;5039654;28;20449;-82
2022/06/25 08:39:24;;;;;;;3.60;3.40;;;22.70;99.90;;;;;;5011902;28;20386;-84
2022/06/25 08:42:09;;;;;;;3.93;3.50;;;22.50;99.90;;;;;;5019676;28;20415;-84
2022/06/25 08:44:53;;;;;;;4.40;4.00;;;22.50;99.90;;;;;;4984112;28;20446;-84
2022/06/25 08:47:43;;;;;;;3.40;3.20;;;23.20;99.90;;;;;;5039837;28;20430;-84
2022/06/25 08:50:28;;;;;;;4.63;4.33;;;23.50;99.90;;;;;;5037604;28;20398;-83
2022/06/25 08:53:16;;;;;;;3.80;3.50;;;23.60;99.90;;;;;;5022940;28;20507;-84
2022/06/25 08:56:01;;;;;;;3.50;3.30;;;23.70;99.90;;;;;;5037801;28;20423;-84
2022/06/25 08:58:46;;;;;;;6.43;3.20;;;23.90;99.90;;;;;;5056427;28;20500;-83
2022/06/25 09:01:32;;;;;;;3.63;3.43;;;23.80;99.90;;;;;;5059689;28;20414;-83
2022/06/25 09:04:17;;;;;;;4.17;3.60;;;23.70;99.90;;;;;;5044072;28;20394;-83
2022/06/25 09:07:11;;;;;;;4.07;3.87;;;23.10;99.90;;;;;;5058220;28;20394;-84
2022/06/25 09:09:55;;;;;;;3.63;3.43;;;22.70;99.90;;;;;;5059285;28;20382;-83
2022/06/25 09:12:51;;;;;;;4.50;3.20;;;22.80;99.90;;;;;;5057754;28;20560;-84
2022/06/25 09:15:41;;;;;;;3.80;3.50;;;23.10;99.90;;;;;;5059324;28;20482;-84
2022/06/25 09:18:26;;;;;;;3.13;2.93;;;23.50;99.90;;;;;;5020300;28;20434;-83
2022/06/25 09:21:12;;;;;;;3.90;3.60;;;23.70;99.90;;;;;;5038179;28;20387;-84
2022/06/25 09:24:00;;;;;;;4.00;3.50;;;24.20;99.90;;;;;;5024041;28;20537;-83
2022/06/25 09:26:52;;;;;;;6.63;3.90;;;24.30;99.90;;;;;;5022674;28;20630;-83
2022/06/25 09:29:39;;;;;;;3.73;3.27;;;24.20;99.90;;;;;;5036776;28;20475;-82
2022/06/25 09:32:24;;;;;;;3.57;3.27;;;24.20;99.90;;;;;;5037282;28;20473;-84
2022/06/25 09:35:13;;;;;;;3.80;3.40;;;24.50;99.90;;;;;;4998052;28;20404;-85
2022/06/25 09:38:03;;;;;;;3.20;3.00;;;24.40;99.90;;;;;;4987275;28;20455;-84
2022/06/25 09:40:58;;;;;;;3.10;2.90;;;24.80;99.90;;;;;;5011771;28;20468;-84
2022/06/25 09:43:47;;;;;;;3.53;3.10;;;24.70;99.90;;;;;;5011713;28;20404;-84
2022/06/25 09:46:31;;;;;;;3.77;3.47;;;25.10;99.90;;;;;;5016859;28;20381;-83
2022/06/25 09:49:24;;;;;;;3.90;3.27;;;24.70;99.90;;;;;;5015555;28;20456;-83
2022/06/25 09:52:09;;;;;;;3.00;2.80;;;24.20;99.90;;;;;;5013394;28;20439;-82
2022/06/25 09:54:55;;;;;;;3.47;3.27;;;24.60;99.90;;;;;;5003779;28;20457;-83
2022/06/25 09:57:42;;;;;;;3.73;3.00;;;24.00;99.90;;;;;;5002005;28;20495;-84
2022/06/25 10:00:27;;;;;;;3.43;3.13;;;24.00;99.90;;;;;;4973716;28;20400;-84
2022/06/25 10:03:13;;;;;;;3.73;3.43;;;24.40;99.90;;;;;;4987871;28;20424;-83
2022/06/25 10:05:59;;;;;;;3.40;3.10;;;24.70;99.90;;;;;;5027533;28;20452;-82
2022/06/25 10:08:54;;;;;;;2.90;2.70;;;25.20;99.90;;;;;;5024321;28;20406;-82
2022/06/25 10:11:39;;;;;;;2.67;2.47;;;25.40;99.90;;;;;;5014601;28;20561;-83
2022/06/25 10:14:24;;;;;;;3.60;3.30;;;25.10;99.90;;;;;;5015849;28;20406;-81
2022/06/25 10:17:17;;;;;;;3.73;3.30;;;24.70;99.90;;;;;;5033043;28;20415;-82
2022/06/25 10:20:03;;;;;;;2.90;2.70;;;24.30;99.90;;;;;;5033422;28;20395;-83
2022/06/25 10:22:50;;;;;;;2.90;2.73;;;23.60;99.90;;;;;;5031142;28;20410;-82
2022/06/25 10:25:36;;;;;;;3.07;2.77;;;23.90;99.90;;;;;;5032281;28;20391;-82
2022/06/25 10:28:29;;;;;;;2.60;2.40;;;24.40;99.90;;;;;;5032273;28;20506;-81
2022/06/25 10:31:16;;;;;;;3.73;3.43;;;24.70;99.90;;;;;;5033069;28;20471;-83
2022/06/25 10:34:03;;;;;;;2.77;2.60;;;25.20;99.90;;;;;;5033776;28;20811;-80
2022/06/25 10:36:49;;;;;;;3.00;2.80;;;25.80;99.90;;;;;;5032306;28;20411;-83
2022/06/25 10:39:35;;;;;;;2.80;2.60;;;25.60;99.90;;;;;;5044412;28;20412;-84
2022/06/25 10:45:44;;;;;;;2.30;2.20;;;25.70;99.90;;;;;;5044080;28;20401;-82
2022/06/25 10:48:32;;;;;;;2.90;2.03;;;26.00;99.90;;;;;;5036965;28;20475;-83
2022/06/25 10:51:41;;;;;;;3.87;2.20;;;25.90;99.90;;;;;;5027615;28;20811;-83
2022/06/25 10:54:37;;;;;;;4.70;2.70;;;25.80;99.90;;;;;;5040455;28;20405;-81
2022/06/25 10:57:38;;;;;;;2.63;2.53;;;26.30;99.90;;;;;;5018865;28;20459;-83
2022/06/25 11:00:22;;;;;;;6.33;4.03;;;25.70;99.90;;;;;;5005490;28;20422;-84
2022/06/25 11:03:07;;;;;;;2.70;2.17;;;25.90;99.90;;;;;;4992440;28;20541;-84
2022/06/25 11:05:51;;;;;;;2.13;2.03;;;25.80;99.90;;;;;;5020395;28;20447;-82
2022/06/25 11:08:36;;;;;;;2.23;2.13;;;26.10;99.90;;;;;;5020861;28;20808;-83
2022/06/25 11:11:32;;;;;;;2.93;2.20;;;25.70;99.90;;;;;;4992895;28;20482;-82
2022/06/25 11:14:21;;;;;;;2.90;2.60;;;26.10;99.90;;;;;;5007435;28;20458;-83
2022/06/25 11:17:09;;;;;;;2.00;1.90;;;26.00;99.90;;;;;;5029886;28;20402;-83
2022/06/25 11:19:54;;;;;;;2.20;2.10;;;25.60;99.90;;;;;;5032290;28;20426;-84
2022/06/25 11:22:52;;;;;;;2.10;2.00;;;25.30;99.90;;;;;;5048541;28;20390;-82
2022/06/25 11:28:57;;;;;;;2.30;2.13;;;26.20;99.90;;;;;;5049868;28;20395;-82
2022/06/25 11:31:44;;;;;;;2.10;2.00;;;26.30;99.90;;;;;;5034957;28;20453;-83
2022/06/25 11:34:29;;;;;;;3.13;1.93;;;26.70;99.90;;;;;;5015546;28;20428;-84
2022/06/25 11:37:17;;;;;;;2.03;1.93;;;27.20;99.90;;;;;;5029976;28;20395;-82
2022/06/25 11:40:03;;;;;;;2.50;2.10;;;26.70;99.90;;;;;;5014925;28;20395;-82
2022/06/25 11:42:47;;;;;;;2.77;2.47;;;26.60;99.90;;;;;;5046776;28;20488;-83
2022/06/25 11:45:49;;;;;;;8.60;2.60;;;27.20;99.90;;;;;;5032853;28;20394;-82
2022/06/25 11:48:34;;;;;;;4.70;2.00;;;27.00;99.90;;;;;;5031777;28;20406;-81
2022/06/25 11:51:26;;;;;;;3.20;2.37;;;27.10;99.90;;;;;;5018108;28;20454;-81
2022/06/25 11:54:12;;;;;;;2.40;2.20;;;27.20;96.90;;;;;;5019100;28;20407;-83
2022/06/25 11:56:57;;;;;;;2.20;2.00;;;26.80;97.30;;;;;;5017143;28;20570;-82
2022/06/25 11:59:41;;;;;;;2.40;2.20;;;27.80;98.70;;;;;;5018959;28;20400;-83
2022/06/25 12:02:26;;;;;;;2.47;2.37;;;28.30;98.90;;;;;;5017960;28;20410;-81
2022/06/25 12:05:11;;;;;;;1.80;1.70;;;28.50;96.50;;;;;;5028571;28;20387;-83
2022/06/25 12:07:57;;;;;;;2.50;2.13;;;28.50;97.20;;;;;;5028741;28;20722;-83
2022/06/25 12:10:42;;;;;;;2.97;2.07;;;28.60;95.80;;;;;;5016172;28;20406;-83
2022/06/25 12:13:30;;;;;;;2.70;2.07;;;28.30;96.40;;;;;;5012433;28;20420;-82
2022/06/25 12:16:16;;;;;;;2.60;2.20;;;28.50;97.00;;;;;;4992173;28;20447;-83
2022/06/25 12:19:00;;;;;;;2.30;2.13;;;28.60;96.70;;;;;;5006668;28;20439;-83
2022/06/25 12:21:45;;;;;;;2.00;1.90;;;29.30;96.60;;;;;;5005484;28;20414;-83
2022/06/25 12:24:30;;;;;;;2.10;2.00;;;29.60;92.10;;;;;;4990573;28;20483;-82
2022/06/25 12:27:14;;;;;;;2.10;2.00;;;29.90;92.70;;;;;;5004451;28;20413;-82
2022/06/25 12:30:00;;;;;;;3.60;2.10;;;30.20;92.40;;;;;;5004445;28;20505;-82
2022/06/25 12:32:44;;;;;;;2.08;1.98;;;30.40;93.90;;;;;;4991666;28;20204;-82
2022/06/25 12:35:30;;;;;;;2.67;2.20;;;30.80;86.50;;;;;;5003941;28;20235;-82
2022/06/25 12:38:15;;;;;;;1.83;1.73;;;30.90;80.70;;;;;;4990790;28;20213;-82
2022/06/25 12:41:00;;;;;;;2.28;2.17;;;30.30;82.80;;;;;;5005323;28;20293;-83
2022/06/25 12:43:46;;;;;;;1.92;1.83;;;30.90;82.60;;;;;;5003576;28;20201;-84
2022/06/25 12:46:31;;;;;;;2.35;2.10;;;30.80;81.70;;;;;;5011884;28;20179;-83
2022/06/25 12:49:15;;;;;;;2.65;2.45;;;31.00;81.30;;;;;;5027384;28;20203;-82
2022/06/25 12:52:00;;;;;;;2.15;2.05;;;31.20;81.80;;;;;;4996630;28;20203;-83
2022/06/25 12:54:48;;;;;;;2.47;2.28;;;31.40;78.70;;;;;;5026337;28;20204;-83
2022/06/25 12:57:37;;;;;;;4.60;2.10;;;31.60;76.80;;;;;;5024654;28;20232;-83
2022/06/25 13:00:25;;;;;;;1.83;1.70;;;31.90;72.20;;;;;;5026483;28;20168;-82
2022/06/25 13:03:10;;;;;;;2.78;2.58;;;30.50;74.70;;;;;;5025407;28;20196;-83
2022/06/25 13:05:55;;;;;;;2.35;2.25;;;30.30;76.00;;;;;;5026195;28;20241;-82
2022/06/25 13:08:41;;;;;;;2.42;2.22;;;30.80;78.80;;;;;;5012001;28;20172;-84
2022/06/25 13:11:26;;;;;;;2.40;2.20;;;32.10;71.30;;;;;;5026607;28;20171;-82
2022/06/25 13:14:10;;;;;;;2.22;1.83;;;32.40;68.10;;;;;;4997532;28;20255;-82
2022/06/25 13:16:57;;;;;;;1.70;1.60;;;32.90;66.40;;;;;;5009760;28;20188;-82
2022/06/25 13:19:41;;;;;;;2.20;2.10;;;33.40;66.00;;;;;;5029078;28;20183;-82
2022/06/25 13:22:46;;;;;;;2.08;1.98;;;33.30;63.10;;;;;;5031145;28;20207;-81
2022/06/25 13:25:31;;;;;;;3.72;1.80;;;33.20;62.70;;;;;;4988916;28;20365;-80
2022/06/25 13:28:15;;;;;;;2.55;2.35;;;33.30;60.30;;;;;;4986400;28;20548;-80
2022/06/25 13:31:00;;;;;;;2.25;2.00;;;32.70;64.20;;;;;;4929422;29;20242;-83
2022/06/25 13:33:44;;;;;;;2.10;2.00;;;33.20;63.60;;;;;;4931951;29;20198;-81
2022/06/25 13:36:29;;;;;;;2.00;1.90;;;31.00;60.50;;;;;;4949036;29;20208;-79
2022/06/25 13:39:20;;;;;;;2.00;1.90;;;30.00;65.40;;;;;;4936207;29;20615;-81
2022/06/25 13:42:04;;;;;;;2.70;2.00;;;29.80;69.70;;;;;;4938473;29;20202;-83
2022/06/25 13:44:49;;;;;;;2.20;2.05;;;30.40;67.50;;;;;;4934738;29;20235;-83
2022/06/25 13:47:36;;;;;;;2.72;2.00;;;30.00;68.90;;;;;;4921230;29;20196;-84
2022/06/25 13:50:21;;;;;;;4.70;2.33;;;30.80;66.90;;;;;;4917282;29;20191;-84
2022/06/25 13:53:06;;;;;;;2.05;1.95;;;31.10;67.20;;;;;;4916767;29;20194;-85
2022/06/25 13:55:51;;;;;;;1.98;1.88;;;31.80;64.20;;;;;;4929921;29;20209;-85
2022/06/25 13:58:39;;;;;;;3.22;2.92;;;32.20;61.90;;;;;;4985624;28;20224;-82
2022/06/25 14:01:23;;;;;;;2.03;1.92;;;31.50;62.20;;;;;;4993644;28;20219;-84
2022/06/25 14:04:11;;;;;;;2.30;2.20;;;31.10;62.70;;;;;;4979804;28;20224;-83
2022/06/25 14:06:56;;;;;;;2.67;2.40;;;29.20;67.30;;;;;;4935400;29;20685;-83
2022/06/25 14:09:40;;;;;;;2.17;2.07;;;28.80;69.50;;;;;;4936014;29;20263;-82
2022/06/25 14:12:25;;;;;;;2.10;2.00;;;28.30;70.90;;;;;;4947129;29;20414;-83
2022/06/25 14:15:09;;;;;;;2.00;1.90;;;28.10;72.40;;;;;;4979636;28;20424;-84
2022/06/25 14:17:54;;;;;;;2.10;1.90;;;28.00;74.90;;;;;;4978911;28;20439;-83
2022/06/25 14:20:39;;;;;;;2.23;2.13;;;27.80;74.90;;;;;;4979340;28;20458;-83
2022/06/25 14:23:23;;;;;;;2.13;2.03;;;27.70;77.60;;;;;;5008773;28;20543;-82
2022/06/25 14:26:08;;;;;;;2.90;2.70;;;28.30;74.80;;;;;;5007665;28;20431;-83
2022/06/25 14:28:53;;;;;;;1.60;1.50;;;28.10;74.20;;;;;;5006623;28;20447;-84
2022/06/25 14:31:38;;;;;;;1.80;1.70;;;28.70;74.90;;;;;;4988073;28;20459;-84
2022/06/25 14:34:23;;;;;;;2.33;2.00;;;29.00;72.70;;;;;;4948959;29;20408;-85
2022/06/25 14:43:10;;;;;;;3.77;3.57;;;29.40;70.10;;;;;;4947975;28;20468;-83
2022/06/25 14:45:56;;;;;;;2.20;2.10;;;29.40;68.40;;;;;;5023179;28;20806;-83
2022/06/25 14:48:41;;;;;;;1.93;1.83;;;29.50;73.80;;;;;;5008297;28;20511;-85